createdAt,value
2023-10-22T00:00:23.990Z,11.10
2023-10-22T00:01:56.249Z,11.10
2023-10-22T00:03:29.521Z,11.10
2023-10-22T00:05:02.115Z,11.10
2023-10-22T00:06:35.266Z,11.20
2023-10-22T00:08:07.743Z,11.20
2023-10-22T00:09:42.344Z,11.20
2023-10-22T00:11:14.635Z,11.20
2023-10-22T00:12:47.801Z,11.20
2023-10-22T00:14:20.021Z,11.20
2023-10-22T00:15:53.197Z,11.30
2023-10-22T00:17:25.464Z,11.30
2023-10-22T00:18:58.629Z,11.30
2023-10-22T00:20:31.690Z,11.30
2023-10-22T00:22:05.825Z,11.30
2023-10-22T00:23:38.196Z,11.30
2023-10-22T00:25:13.153Z,11.30
2023-10-22T00:26:45.381Z,11.40
2023-10-22T00:28:18.609Z,11.40
2023-10-22T00:29:51.255Z,11.40
2023-10-22T00:31:24.918Z,11.40
2023-10-22T00:32:57.188Z,11.40
2023-10-22T00:34:30.631Z,11.40
2023-10-22T00:36:03.939Z,11.50
2023-10-22T00:37:37.122Z,11.40
2023-10-22T00:39:09.625Z,11.40
2023-10-22T00:40:44.184Z,11.50
2023-10-22T00:42:17.408Z,11.50
2023-10-22T00:43:49.590Z,11.50
2023-10-22T00:45:22.972Z,11.50
2023-10-22T00:46:55.815Z,11.50
2023-10-22T00:48:29.094Z,11.60
2023-10-22T00:50:02.657Z,11.60
2023-10-22T00:51:35.454Z,11.60
2023-10-22T00:53:09.595Z,11.60
2023-10-22T00:54:42.988Z,11.60
2023-10-22T00:56:17.390Z,11.60
2023-10-22T00:57:50.938Z,11.60
2023-10-22T00:59:24.935Z,11.60
2023-10-22T01:00:58.504Z,11.60
2023-10-22T01:02:30.812Z,11.60
2023-10-22T01:04:05.264Z,11.70
2023-10-22T01:05:39.031Z,11.70
2023-10-22T01:07:12.737Z,11.70
2023-10-22T01:08:47.245Z,11.70
2023-10-22T01:10:20.691Z,11.70
2023-10-22T01:12:04.187Z,11.70
2023-10-22T01:13:36.919Z,11.70
2023-10-22T01:15:11.125Z,11.70
2023-10-22T01:16:44.450Z,11.70
2023-10-22T01:18:17.590Z,11.70
2023-10-22T01:19:51.477Z,11.70
2023-10-22T01:21:24.751Z,11.80
2023-10-22T01:22:57.962Z,11.70
2023-10-22T01:24:34.305Z,11.70
2023-10-22T01:26:08.578Z,11.70
2023-10-22T01:27:40.793Z,11.80
2023-10-22T01:29:14.992Z,11.80
2023-10-22T01:30:47.296Z,11.70
2023-10-22T01:32:20.556Z,11.70
2023-10-22T01:33:53.697Z,11.70
2023-10-22T01:35:27.057Z,11.70
2023-10-22T01:36:59.207Z,11.80
2023-10-22T01:38:32.667Z,11.80
2023-10-22T01:40:08.721Z,11.80
2023-10-22T01:41:42.734Z,11.80
2023-10-22T01:43:15.078Z,11.70
2023-10-22T01:44:48.609Z,11.80
2023-10-22T01:46:22.780Z,11.70
2023-10-22T01:47:55.150Z,11.80
2023-10-22T01:49:28.459Z,11.80
2023-10-22T01:51:00.727Z,11.80
2023-10-22T01:52:34.081Z,11.80
2023-10-22T01:54:07.823Z,11.80
2023-10-22T01:55:41.444Z,11.80
2023-10-22T01:57:17.529Z,11.80
2023-10-22T01:58:49.725Z,11.80
2023-10-22T02:00:23.098Z,11.80
2023-10-22T02:01:56.290Z,11.80
2023-10-22T02:03:28.699Z,11.70
2023-10-22T02:05:02.441Z,11.80
2023-10-22T02:06:34.787Z,11.80
2023-10-22T02:08:09.000Z,11.80
2023-10-22T02:09:41.244Z,11.80
2023-10-22T02:11:15.776Z,11.80
2023-10-22T02:12:48.065Z,11.80
2023-10-22T02:14:21.492Z,11.80
2023-10-22T02:15:54.052Z,11.80
2023-10-22T02:17:27.234Z,11.80
2023-10-22T02:18:59.507Z,11.80
2023-10-22T02:20:32.628Z,11.80
2023-10-22T02:22:05.264Z,11.80
2023-10-22T02:23:40.403Z,11.80
2023-10-22T02:25:14.644Z,11.80
2023-10-22T02:26:49.473Z,11.80
2023-10-22T02:28:22.014Z,11.80
2023-10-22T02:29:55.301Z,11.80
2023-10-22T02:31:28.602Z,11.80
2023-10-22T02:33:00.844Z,11.80
2023-10-22T02:34:34.229Z,11.80
2023-10-22T02:36:08.129Z,11.80
2023-10-22T02:37:41.390Z,11.80
2023-10-22T02:39:14.877Z,11.80
2023-10-22T02:40:49.738Z,11.80
2023-10-22T02:42:24.304Z,11.80
2023-10-22T02:43:56.658Z,11.80
2023-10-22T02:45:29.862Z,11.80
2023-10-22T02:47:02.214Z,11.80
2023-10-22T02:48:35.487Z,11.80
2023-10-22T02:50:09.464Z,11.80
2023-10-22T02:51:42.599Z,11.80
2023-10-22T02:53:15.369Z,11.80
2023-10-22T02:54:50.006Z,11.80
2023-10-22T02:56:22.531Z,11.80
2023-10-22T02:57:57.064Z,11.80
2023-10-22T02:59:29.300Z,11.80
2023-10-22T03:01:06.965Z,11.80
2023-10-22T03:02:40.736Z,11.80
2023-10-22T03:04:14.068Z,11.80
2023-10-22T03:05:46.962Z,11.70
2023-10-22T03:07:20.406Z,11.70
2023-10-22T03:08:52.712Z,11.70
2023-10-22T03:10:25.923Z,11.70
2023-10-22T03:11:58.186Z,11.70
2023-10-22T03:13:33.486Z,11.70
2023-10-22T03:15:08.414Z,11.70
2023-10-22T03:16:41.691Z,11.70
2023-10-22T03:18:14.903Z,11.70
2023-10-22T03:19:48.684Z,11.70
2023-10-22T03:21:21.703Z,11.70
2023-10-22T03:22:54.992Z,11.70
2023-10-22T03:24:28.395Z,11.70
2023-10-22T03:26:06.873Z,11.60
2023-10-22T03:27:40.650Z,11.60
2023-10-22T03:29:14.146Z,11.60
2023-10-22T03:30:47.358Z,11.60
2023-10-22T03:32:20.078Z,11.60
2023-10-22T03:33:56.058Z,11.60
2023-10-22T03:35:29.488Z,11.60
2023-10-22T03:37:05.635Z,11.60
2023-10-22T03:38:39.444Z,11.60
2023-10-22T03:40:12.482Z,11.60
2023-10-22T03:41:46.102Z,11.60
2023-10-22T03:43:18.265Z,11.60
2023-10-22T03:44:53.086Z,11.60
2023-10-22T03:46:25.458Z,11.60
2023-10-22T03:47:58.951Z,11.60
2023-10-22T03:49:32.550Z,11.60
2023-10-22T03:51:04.981Z,11.60
2023-10-22T03:52:43.614Z,11.60
2023-10-22T03:54:16.843Z,11.50
2023-10-22T03:55:50.253Z,11.60
2023-10-22T03:57:22.471Z,11.60
2023-10-22T03:58:55.974Z,11.50
2023-10-22T04:00:29.537Z,11.50
2023-10-22T04:02:03.011Z,11.50
2023-10-22T04:03:35.388Z,11.50
2023-10-22T04:05:09.676Z,11.50
2023-10-22T04:06:41.850Z,11.50
2023-10-22T04:08:15.003Z,11.50
2023-10-22T04:09:48.474Z,11.50
2023-10-22T04:11:21.106Z,11.50
2023-10-22T04:12:54.274Z,11.50
2023-10-22T04:14:26.523Z,11.50
2023-10-22T04:16:01.072Z,11.50
2023-10-22T04:17:33.397Z,11.50
2023-10-22T04:19:07.795Z,11.50
2023-10-22T04:20:40.495Z,11.40
2023-10-22T04:22:13.741Z,11.40
2023-10-22T04:23:47.609Z,11.40
2023-10-22T04:25:20.846Z,11.40
2023-10-22T04:26:53.176Z,11.40
2023-10-22T04:28:26.593Z,11.40
2023-10-22T04:29:58.902Z,11.40
2023-10-22T04:31:33.441Z,11.40
2023-10-22T04:33:06.536Z,11.40
2023-10-22T04:34:40.638Z,11.40
2023-10-22T04:36:18.206Z,11.40
2023-10-22T04:37:54.784Z,11.40
2023-10-22T04:39:28.007Z,11.40
2023-10-22T04:41:00.263Z,11.40
2023-10-22T04:42:33.483Z,11.40
2023-10-22T04:44:06.915Z,11.40
2023-10-22T04:45:47.188Z,11.40
2023-10-22T04:47:20.994Z,11.40
2023-10-22T04:48:55.333Z,11.40
2023-10-22T04:50:27.627Z,11.40
2023-10-22T04:52:00.846Z,11.40
2023-10-22T04:53:33.325Z,11.30
2023-10-22T04:55:07.878Z,11.30
2023-10-22T04:56:41.320Z,11.30
2023-10-22T04:58:13.757Z,11.30
2023-10-22T04:59:47.071Z,11.30
2023-10-22T05:01:20.581Z,11.30
2023-10-22T05:02:54.195Z,11.30
2023-10-22T05:04:29.386Z,11.30
2023-10-22T05:06:08.450Z,11.30
2023-10-22T05:07:43.014Z,11.30
2023-10-22T05:09:16.486Z,11.30
2023-10-22T05:10:48.779Z,11.20
2023-10-22T05:12:22.031Z,11.30
2023-10-22T05:14:16.275Z,11.30
2023-10-22T05:15:54.169Z,11.20
2023-10-22T05:17:27.531Z,11.30
2023-10-22T05:19:01.111Z,11.20
2023-10-22T05:20:34.393Z,11.20
2023-10-22T05:22:06.717Z,11.20
2023-10-22T05:23:39.961Z,11.10
2023-10-22T05:25:13.865Z,11.10
2023-10-22T05:26:46.282Z,11.10
2023-10-22T05:28:19.458Z,11.10
2023-10-22T05:29:51.980Z,11.10
2023-10-22T05:31:25.208Z,11.10
2023-10-22T05:33:02.137Z,11.10
2023-10-22T05:34:37.416Z,11.10
2023-10-22T05:36:17.283Z,11.10
2023-10-22T05:37:52.376Z,11.10
2023-10-22T05:39:25.846Z,11.10
2023-10-22T05:40:58.975Z,11.10
2023-10-22T05:42:32.377Z,11.10
2023-10-22T05:44:05.978Z,11.00
2023-10-22T05:45:38.371Z,11.00
2023-10-22T05:47:11.684Z,11.00
2023-10-22T05:48:43.973Z,11.00
2023-10-22T05:50:18.673Z,11.00
2023-10-22T05:51:52.291Z,11.00
2023-10-22T05:53:25.655Z,11.00
2023-10-22T05:54:57.868Z,11.00
2023-10-22T05:56:31.194Z,11.00
2023-10-22T05:58:03.927Z,11.00
2023-10-22T05:59:37.347Z,11.00
2023-10-22T06:01:10.458Z,11.00
2023-10-22T06:02:44.854Z,11.00
2023-10-22T06:04:17.331Z,11.00
2023-10-22T06:05:52.266Z,11.10
2023-10-22T06:07:26.046Z,11.10
2023-10-22T06:08:58.587Z,11.10
2023-10-22T06:10:31.848Z,11.10
2023-10-22T06:12:05.607Z,11.10
2023-10-22T06:13:39.566Z,11.10
2023-10-22T06:15:11.845Z,11.10
2023-10-22T06:16:45.107Z,11.10
2023-10-22T06:18:17.694Z,11.10
2023-10-22T06:19:51.036Z,11.10
2023-10-22T06:21:25.059Z,11.10
2023-10-22T06:22:58.673Z,11.20
2023-10-22T06:24:30.901Z,11.20
2023-10-22T06:26:04.140Z,11.30
2023-10-22T06:27:36.536Z,11.20
2023-10-22T06:29:09.724Z,11.20
2023-10-22T06:30:42.175Z,11.20
2023-10-22T06:32:15.374Z,11.20
2023-10-22T06:33:47.975Z,11.20
2023-10-22T06:35:22.350Z,11.20
2023-10-22T06:36:56.869Z,11.20
2023-10-22T06:38:30.074Z,11.20
2023-10-22T06:40:02.320Z,11.20
2023-10-22T06:41:35.451Z,11.20
2023-10-22T06:43:07.993Z,11.20
2023-10-22T06:44:43.543Z,11.20
2023-10-22T06:46:18.225Z,11.10
2023-10-22T06:47:51.971Z,11.10
2023-10-22T06:49:24.206Z,11.10
2023-10-22T06:50:57.515Z,11.10
2023-10-22T06:52:31.345Z,11.10
2023-10-22T06:54:05.725Z,11.10
2023-10-22T06:55:41.882Z,11.10
2023-10-22T06:57:15.153Z,11.10
2023-10-22T06:58:47.907Z,11.10
2023-10-22T07:00:21.473Z,11.00
2023-10-22T07:01:53.736Z,11.10
2023-10-22T07:03:27.094Z,11.00
2023-10-22T07:04:59.747Z,11.00
2023-10-22T07:06:33.042Z,11.00
2023-10-22T07:08:08.008Z,11.00
2023-10-22T07:09:40.284Z,11.00
2023-10-22T07:11:13.551Z,11.00
2023-10-22T07:12:45.966Z,11.00
2023-10-22T07:14:19.534Z,11.00
2023-10-22T07:15:52.174Z,11.00
2023-10-22T07:17:25.592Z,10.90
2023-10-22T07:18:57.897Z,10.90
2023-10-22T07:20:31.158Z,10.90
2023-10-22T07:22:04.065Z,10.90
2023-10-22T07:23:38.581Z,10.90
2023-10-22T07:25:11.193Z,10.90
2023-10-22T07:26:44.515Z,10.90
2023-10-22T07:28:17.550Z,10.90
2023-10-22T07:29:51.191Z,10.90
2023-10-22T07:31:24.674Z,10.90
2023-10-22T07:32:57.189Z,10.90
2023-10-22T07:34:31.262Z,10.90
2023-10-22T07:36:05.264Z,10.90
2023-10-22T07:37:38.284Z,10.90
2023-10-22T07:39:13.771Z,10.90
2023-10-22T07:40:46.065Z,10.90
2023-10-22T07:42:19.356Z,10.90
2023-10-22T07:43:51.945Z,10.90
2023-10-22T07:45:27.127Z,10.90
2023-10-22T07:46:59.772Z,10.90
2023-10-22T07:48:34.986Z,10.90
2023-10-22T07:50:08.936Z,10.90
2023-10-22T07:51:42.089Z,10.90
2023-10-22T07:53:15.722Z,10.90
2023-10-22T07:54:53.278Z,10.90
2023-10-22T07:56:25.767Z,10.90
2023-10-22T07:58:00.517Z,10.90
2023-10-22T07:59:32.612Z,10.90
2023-10-22T08:01:07.176Z,10.90
2023-10-22T08:02:39.431Z,10.80
2023-10-22T08:04:12.755Z,10.80
2023-10-22T08:05:45.099Z,10.80
2023-10-22T08:07:20.076Z,10.80
2023-10-22T08:08:55.743Z,10.80
2023-10-22T08:10:30.668Z,10.80
2023-10-22T08:12:06.850Z,10.80
2023-10-22T08:13:39.596Z,10.80
2023-10-22T08:15:13.200Z,10.80
2023-10-22T08:16:45.494Z,10.80
2023-10-22T08:18:18.897Z,10.90
2023-10-22T08:19:51.241Z,10.80
2023-10-22T08:21:24.545Z,10.80
2023-10-22T08:22:57.116Z,10.80
2023-10-22T08:24:30.761Z,10.80
2023-10-22T08:26:04.438Z,10.80
2023-10-22T08:27:37.741Z,10.90
2023-10-22T08:29:11.628Z,10.80
2023-10-22T08:30:45.936Z,10.80
2023-10-22T08:32:19.157Z,10.80
2023-10-22T08:33:51.406Z,10.90
2023-10-22T08:35:26.268Z,10.80
2023-10-22T08:36:58.348Z,10.80
2023-10-22T08:38:31.492Z,10.90
2023-10-22T08:40:08.512Z,10.90
2023-10-22T08:41:52.988Z,10.90
2023-10-22T08:43:30.291Z,10.90
2023-10-22T08:45:05.759Z,10.90
2023-10-22T08:46:39.060Z,10.90
2023-10-22T08:48:11.809Z,10.90
2023-10-22T08:49:45.951Z,10.90
2023-10-22T08:51:23.308Z,10.90
2023-10-22T08:52:56.627Z,10.90
2023-10-22T08:54:29.910Z,10.90
2023-10-22T08:56:02.910Z,10.90
2023-10-22T08:57:37.983Z,10.90
2023-10-22T08:59:12.526Z,10.90
2023-10-22T09:00:46.680Z,11.00
2023-10-22T09:02:22.682Z,11.00
2023-10-22T09:03:56.403Z,11.00
2023-10-22T09:05:30.459Z,11.00
2023-10-22T09:07:03.978Z,11.00
2023-10-22T09:08:47.619Z,11.00
2023-10-22T09:10:29.725Z,11.00
2023-10-22T09:12:04.019Z,11.00
2023-10-22T09:13:37.620Z,11.00
2023-10-22T09:15:11.579Z,11.00
2023-10-22T09:16:43.835Z,11.00
2023-10-22T09:18:19.885Z,11.10
2023-10-22T09:19:53.765Z,11.10
2023-10-22T09:21:43.859Z,11.10
2023-10-22T09:23:19.734Z,11.10
2023-10-22T09:24:55.576Z,11.10
2023-10-22T09:26:43.788Z,11.20
2023-10-22T09:28:21.468Z,11.20
2023-10-22T09:29:57.444Z,11.20
2023-10-22T09:31:30.869Z,11.30
2023-10-22T09:33:03.521Z,11.30
2023-10-22T09:34:37.032Z,11.20
2023-10-22T09:36:12.356Z,11.30
2023-10-22T09:37:54.983Z,11.30
2023-10-22T09:39:35.294Z,11.30
2023-10-22T09:41:09.511Z,11.40
2023-10-22T09:42:42.599Z,11.40
2023-10-22T09:44:15.818Z,11.40
2023-10-22T09:45:49.608Z,11.50
2023-10-22T09:47:25.940Z,11.50
2023-10-22T09:49:01.081Z,11.50
2023-10-22T09:50:43.791Z,11.60
2023-10-22T09:52:19.002Z,11.60
2023-10-22T09:53:55.340Z,11.60
2023-10-22T09:55:31.076Z,11.60
2023-10-22T09:57:11.282Z,11.70
2023-10-22T09:58:46.385Z,11.70
2023-10-22T10:00:23.247Z,11.70
2023-10-22T10:02:02.406Z,11.70
2023-10-22T10:03:35.435Z,11.70
2023-10-22T10:05:11.134Z,11.80
2023-10-22T10:06:46.273Z,11.80
2023-10-22T10:08:19.933Z,11.80
2023-10-22T10:09:56.404Z,11.80
2023-10-22T10:11:29.276Z,11.80
2023-10-22T10:13:03.823Z,11.80
2023-10-22T10:14:43.512Z,11.90
2023-10-22T10:16:16.787Z,11.90
2023-10-22T10:17:53.756Z,11.90
2023-10-22T10:19:27.085Z,11.80
2023-10-22T10:21:45.546Z,11.90
2023-10-22T10:23:21.098Z,11.90
2023-10-22T10:25:30.003Z,11.90
2023-10-22T10:27:26.622Z,11.90
2023-10-22T10:29:07.792Z,11.90
2023-10-22T10:30:41.588Z,12.00
2023-10-22T10:32:23.316Z,12.00
2023-10-22T10:34:05.283Z,12.00
2023-10-22T10:35:47.441Z,12.00
2023-10-22T10:37:21.999Z,12.00
2023-10-22T10:38:55.351Z,12.00
2023-10-22T10:40:42.912Z,12.10
2023-10-22T10:42:49.649Z,12.10
2023-10-22T10:44:22.796Z,12.10
2023-10-22T10:46:26.987Z,12.10
2023-10-22T10:48:00.524Z,12.10
2023-10-22T10:49:58.695Z,12.10
2023-10-22T10:51:31.985Z,12.10
2023-10-22T10:53:04.394Z,12.20
2023-10-22T10:54:37.762Z,12.20
2023-10-22T10:56:10.546Z,12.20
2023-10-22T10:57:46.312Z,12.20
2023-10-22T10:59:32.743Z,12.20
2023-10-22T11:01:06.503Z,12.20
2023-10-22T11:02:44.695Z,12.20
2023-10-22T11:04:16.991Z,12.20
2023-10-22T11:05:51.830Z,12.30
2023-10-22T11:07:27.400Z,12.30
2023-10-22T11:09:00.875Z,12.30
2023-10-22T11:10:34.364Z,12.30
2023-10-22T11:12:10.087Z,12.30
2023-10-22T11:13:43.341Z,12.30
2023-10-22T11:15:17.449Z,12.30
2023-10-22T11:16:56.971Z,12.40
2023-10-22T11:18:30.213Z,12.40
2023-10-22T11:20:05.562Z,12.40
2023-10-22T11:21:41.487Z,12.50
2023-10-22T11:23:21.124Z,12.50
2023-10-22T11:24:56.841Z,12.50
2023-10-22T11:26:30.202Z,12.50
2023-10-22T11:28:04.056Z,12.50
2023-10-22T11:29:41.465Z,12.50
2023-10-22T11:31:25.401Z,12.50
2023-10-22T11:32:57.692Z,12.60
2023-10-22T11:34:30.970Z,12.60
2023-10-22T11:36:19.308Z,12.60
2023-10-22T11:37:55.399Z,12.60
2023-10-22T11:39:41.728Z,12.70
2023-10-22T11:41:17.608Z,12.70
2023-10-22T11:42:49.955Z,12.80
2023-10-22T11:44:35.065Z,12.70
2023-10-22T11:46:07.953Z,12.70
2023-10-22T11:47:41.249Z,12.70
2023-10-22T11:49:13.648Z,12.70
2023-10-22T11:50:47.560Z,12.70
2023-10-22T11:52:38.836Z,12.70
2023-10-22T11:54:13.800Z,12.80
2023-10-22T11:55:47.377Z,12.80
2023-10-22T11:57:19.622Z,12.80
2023-10-22T11:58:53.652Z,12.80
2023-10-22T12:00:26.385Z,12.80
2023-10-22T12:01:59.584Z,12.80
2023-10-22T12:03:31.939Z,12.80
2023-10-22T12:05:06.531Z,12.80
2023-10-22T12:06:39.664Z,12.80
2023-10-22T12:08:12.913Z,12.80
2023-10-22T12:09:47.452Z,12.80
2023-10-22T12:11:19.661Z,12.80
2023-10-22T12:12:52.949Z,12.80
2023-10-22T12:14:25.341Z,12.80
2023-10-22T12:15:58.486Z,12.80
2023-10-22T12:17:30.822Z,12.80
2023-10-22T12:19:04.268Z,12.80
2023-10-22T12:20:37.789Z,12.80
2023-10-22T12:22:10.546Z,12.80
2023-10-22T12:23:49.552Z,12.80
2023-10-22T12:25:25.373Z,12.80
2023-10-22T12:26:57.532Z,12.80
2023-10-22T12:28:30.821Z,12.80
2023-10-22T12:30:05.988Z,12.70
2023-10-22T12:31:38.281Z,12.80
2023-10-22T12:33:23.247Z,12.80
2023-10-22T12:34:56.298Z,12.70
2023-10-22T12:36:29.594Z,12.70
2023-10-22T12:38:02.863Z,12.70
2023-10-22T12:39:35.361Z,12.70
2023-10-22T12:41:09.972Z,12.70
2023-10-22T12:42:42.630Z,12.70
2023-10-22T12:44:16.066Z,12.70
2023-10-22T12:45:48.319Z,12.70
2023-10-22T12:47:21.469Z,12.70
2023-10-22T12:48:53.985Z,12.70
2023-10-22T12:50:27.441Z,12.70
2023-10-22T12:52:00.231Z,12.70
2023-10-22T12:53:33.677Z,12.70
2023-10-22T12:55:07.319Z,12.70
2023-10-22T12:56:42.101Z,12.70
2023-10-22T12:58:14.184Z,12.70
2023-10-22T12:59:47.761Z,12.80
2023-10-22T13:01:21.229Z,12.70
2023-10-22T13:02:55.871Z,12.70
2023-10-22T13:04:29.826Z,12.80
2023-10-22T13:06:06.957Z,12.80
2023-10-22T13:07:41.311Z,12.80
2023-10-22T13:09:14.443Z,12.80
2023-10-22T13:10:50.949Z,12.80
2023-10-22T13:12:25.640Z,12.80
2023-10-22T13:13:57.969Z,12.80
2023-10-22T13:15:31.314Z,12.80
2023-10-22T13:17:04.643Z,12.80
2023-10-22T13:18:37.872Z,12.80
2023-10-22T13:20:11.796Z,12.90
2023-10-22T13:21:45.090Z,12.80
2023-10-22T13:23:17.322Z,12.90
2023-10-22T13:24:50.584Z,12.90
2023-10-22T13:26:22.883Z,12.90
2023-10-22T13:27:57.666Z,12.90
2023-10-22T13:29:29.956Z,12.90
2023-10-22T13:31:04.685Z,12.90
2023-10-22T13:32:36.750Z,12.90
2023-10-22T13:34:10.096Z,12.90
2023-10-22T13:35:42.607Z,12.90
2023-10-22T13:37:18.525Z,13.00
2023-10-22T13:38:52.073Z,13.00
2023-10-22T13:40:24.540Z,13.00
2023-10-22T13:41:57.807Z,13.00
2023-10-22T13:43:31.490Z,13.00
2023-10-22T13:45:05.758Z,13.00
2023-10-22T13:46:37.993Z,12.90
2023-10-22T13:48:11.976Z,13.00
2023-10-22T13:49:45.467Z,12.90
2023-10-22T13:51:18.943Z,12.90
2023-10-22T13:52:51.170Z,12.90
2023-10-22T13:54:24.901Z,12.90
2023-10-22T13:55:57.822Z,12.90
2023-10-22T13:57:31.401Z,12.90
2023-10-22T13:59:07.026Z,12.90
2023-10-22T14:00:40.457Z,12.90
2023-10-22T14:02:12.967Z,12.90
2023-10-22T14:03:46.412Z,12.90
2023-10-22T14:05:18.776Z,12.90
2023-10-22T14:06:52.011Z,12.90
2023-10-22T14:08:25.479Z,12.90
2023-10-22T14:09:57.969Z,12.90
2023-10-22T14:11:31.143Z,12.90
2023-10-22T14:13:05.676Z,12.90
2023-10-22T14:14:39.508Z,12.90
2023-10-22T14:16:14.789Z,12.90
2023-10-22T14:17:48.303Z,12.90
2023-10-22T14:19:22.623Z,12.90
2023-10-22T14:20:55.977Z,12.90
2023-10-22T14:22:28.232Z,12.90
2023-10-22T14:24:01.465Z,13.00
2023-10-22T14:25:36.136Z,13.00
2023-10-22T14:27:14.279Z,13.00
2023-10-22T14:28:48.202Z,13.00
2023-10-22T14:30:21.882Z,13.00
2023-10-22T14:31:55.174Z,13.00
2023-10-22T14:33:27.731Z,13.00
2023-10-22T14:35:00.973Z,13.00
2023-10-22T14:36:35.333Z,13.00
2023-10-22T14:38:08.799Z,13.00
2023-10-22T14:39:41.041Z,13.00
2023-10-22T14:41:14.287Z,13.00
2023-10-22T14:42:48.519Z,13.00
2023-10-22T14:44:22.744Z,13.00
2023-10-22T14:46:01.485Z,13.00
2023-10-22T14:47:33.708Z,13.00
2023-10-22T14:49:07.981Z,13.00
2023-10-22T14:50:40.361Z,13.00
2023-10-22T14:52:13.537Z,12.90
2023-10-22T14:53:46.051Z,12.90
2023-10-22T14:55:19.315Z,12.90
2023-10-22T14:56:51.618Z,13.00
2023-10-22T14:58:24.923Z,13.00
2023-10-22T14:59:58.155Z,13.00
2023-10-22T15:01:32.663Z,13.00
2023-10-22T15:03:06.127Z,13.00
2023-10-22T15:04:39.570Z,13.00
2023-10-22T15:06:12.512Z,13.00
2023-10-22T15:07:47.081Z,13.00
2023-10-22T15:09:19.338Z,13.00
2023-10-22T15:10:53.080Z,13.00
2023-10-22T15:12:26.430Z,13.00
2023-10-22T15:13:58.644Z,13.00
2023-10-22T15:15:39.387Z,13.10
2023-10-22T15:17:13.058Z,13.00
2023-10-22T15:18:46.573Z,13.00
2023-10-22T15:20:18.930Z,13.00
2023-10-22T15:21:52.189Z,13.00
2023-10-22T15:23:24.493Z,13.10
2023-10-22T15:24:57.689Z,13.10
2023-10-22T15:26:29.952Z,13.10
2023-10-22T15:28:04.287Z,13.10
2023-10-22T15:29:37.030Z,13.10
2023-10-22T15:31:10.696Z,13.10
2023-10-22T15:32:44.484Z,13.00
2023-10-22T15:34:17.810Z,13.00
2023-10-22T15:35:57.741Z,13.00
2023-10-22T15:37:31.189Z,13.00
2023-10-22T15:39:03.798Z,13.10
2023-10-22T15:40:37.420Z,13.00
2023-10-22T15:42:09.648Z,13.00
2023-10-22T15:43:42.844Z,13.00
2023-10-22T15:45:15.318Z,12.90
2023-10-22T15:46:51.063Z,12.90
2023-10-22T15:48:27.365Z,12.90
2023-10-22T15:50:02.363Z,12.90
2023-10-22T15:51:35.561Z,12.90
2023-10-22T15:53:07.923Z,12.90
2023-10-22T15:54:41.188Z,12.80
2023-10-22T15:56:15.923Z,12.80
2023-10-22T15:57:52.850Z,12.80
2023-10-22T15:59:26.112Z,12.80
2023-10-22T16:00:58.689Z,12.80
2023-10-22T16:02:32.042Z,12.80
2023-10-22T16:04:08.374Z,12.80
2023-10-22T16:05:42.123Z,12.80
2023-10-22T16:07:14.297Z,12.80
2023-10-22T16:08:47.522Z,12.80
2023-10-22T16:10:20.008Z,12.80
2023-10-22T16:11:53.222Z,12.80
2023-10-22T16:13:25.522Z,12.80
2023-10-22T16:14:59.050Z,12.70
2023-10-22T16:16:32.325Z,12.70
2023-10-22T16:18:05.867Z,12.70
2023-10-22T16:19:40.518Z,12.70
2023-10-22T16:21:14.147Z,12.70
2023-10-22T16:22:46.386Z,12.70
2023-10-22T16:24:19.863Z,12.60
2023-10-22T16:25:52.085Z,12.60
2023-10-22T16:27:25.374Z,12.60
2023-10-22T16:28:58.908Z,12.60
2023-10-22T16:30:32.879Z,12.60
2023-10-22T16:32:06.674Z,12.50
2023-10-22T16:33:40.033Z,12.50
2023-10-22T16:35:13.587Z,12.50
2023-10-22T16:36:47.107Z,12.50
2023-10-22T16:38:20.374Z,12.50
2023-10-22T16:39:54.152Z,12.40
2023-10-22T16:41:26.341Z,12.40
2023-10-22T16:42:59.556Z,12.40
2023-10-22T16:44:31.862Z,12.40
2023-10-22T16:46:05.994Z,12.40
2023-10-22T16:47:38.254Z,12.40
2023-10-22T16:49:12.679Z,12.30
2023-10-22T16:50:46.188Z,12.30
2023-10-22T16:52:20.400Z,12.30
2023-10-22T16:53:53.023Z,12.30
2023-10-22T16:55:27.294Z,12.20
2023-10-22T16:57:01.558Z,12.20
2023-10-22T16:58:35.084Z,12.20
2023-10-22T17:00:12.125Z,12.20
2023-10-22T17:01:45.522Z,12.10
2023-10-22T17:03:18.052Z,12.10
2023-10-22T17:04:51.447Z,12.10
2023-10-22T17:06:26.535Z,12.00
2023-10-22T17:07:59.978Z,12.00
2023-10-22T17:09:32.301Z,12.00
2023-10-22T17:11:07.247Z,12.00
2023-10-22T17:12:39.898Z,11.90
2023-10-22T17:14:13.870Z,11.90
2023-10-22T17:15:46.527Z,11.90
2023-10-22T17:17:19.836Z,11.90
2023-10-22T17:18:54.588Z,11.90
2023-10-22T17:20:28.142Z,11.80
2023-10-22T17:22:02.678Z,11.80
2023-10-22T17:23:35.289Z,11.80
2023-10-22T17:25:10.074Z,11.80
2023-10-22T17:26:42.152Z,11.70
2023-10-22T17:28:15.582Z,11.70
2023-10-22T17:29:47.787Z,11.70
2023-10-22T17:31:23.530Z,11.70
2023-10-22T17:32:55.747Z,11.70
2023-10-22T17:34:28.856Z,11.60
2023-10-22T17:36:01.216Z,11.60
2023-10-22T17:37:35.981Z,11.60
2023-10-22T17:39:08.366Z,11.60
2023-10-22T17:40:42.461Z,11.60
2023-10-22T17:42:15.673Z,11.60
2023-10-22T17:43:47.840Z,11.50
2023-10-22T17:45:21.718Z,11.50
2023-10-22T17:46:55.011Z,11.50
2023-10-22T17:48:27.398Z,11.50
2023-10-22T17:50:00.688Z,11.50
2023-10-22T17:51:34.463Z,11.40
2023-10-22T17:53:23.652Z,11.40
2023-10-22T17:54:59.364Z,11.40
2023-10-22T17:56:31.603Z,11.40
2023-10-22T17:58:06.143Z,11.40
2023-10-22T17:59:38.459Z,11.40
2023-10-22T18:01:12.209Z,11.40
2023-10-22T18:02:44.531Z,11.30
2023-10-22T18:04:17.925Z,11.30
2023-10-22T18:05:50.687Z,11.30
2023-10-22T18:07:23.996Z,11.30
2023-10-22T18:08:57.890Z,11.30
2023-10-22T18:10:32.799Z,11.30
2023-10-22T18:12:06.444Z,11.30
2023-10-22T18:13:38.704Z,11.30
2023-10-22T18:15:12.818Z,11.30
2023-10-22T18:16:45.622Z,11.30
2023-10-22T18:18:18.957Z,11.20
2023-10-22T18:19:53.352Z,11.20
2023-10-22T18:21:26.323Z,11.20
2023-10-22T18:22:59.690Z,11.20
2023-10-22T18:24:36.186Z,11.20
2023-10-22T18:26:09.617Z,11.20
2023-10-22T18:27:42.855Z,11.20
2023-10-22T18:29:15.369Z,11.20
2023-10-22T18:30:49.807Z,11.10
2023-10-22T18:32:23.541Z,11.10
2023-10-22T18:33:55.834Z,11.10
2023-10-22T18:35:29.322Z,11.10
2023-10-22T18:37:02.532Z,11.10
2023-10-22T18:38:36.444Z,11.10
2023-10-22T18:40:13.148Z,11.10
2023-10-22T18:41:47.779Z,11.10
2023-10-22T18:43:22.824Z,11.10
2023-10-22T18:44:55.979Z,11.10
2023-10-22T18:46:31.236Z,11.10
2023-10-22T18:48:05.167Z,11.10
2023-10-22T18:49:38.565Z,11.00
2023-10-22T18:51:15.874Z,11.00
2023-10-22T18:52:48.792Z,11.10
2023-10-22T18:54:22.028Z,11.00
2023-10-22T18:55:57.993Z,11.00
2023-10-22T18:57:31.339Z,11.00
2023-10-22T18:59:04.834Z,11.00
2023-10-22T19:00:37.708Z,11.00
2023-10-22T19:02:10.959Z,11.00
2023-10-22T19:03:44.734Z,11.00
2023-10-22T19:05:19.032Z,11.00
2023-10-22T19:06:51.450Z,11.00
2023-10-22T19:08:24.574Z,11.00
2023-10-22T19:09:56.915Z,11.00
2023-10-22T19:11:31.801Z,10.90
2023-10-22T19:13:04.046Z,10.90
2023-10-22T19:14:37.399Z,10.90
2023-10-22T19:16:09.862Z,10.90
2023-10-22T19:17:44.591Z,10.90
2023-10-22T19:19:16.690Z,10.90
2023-10-22T19:20:57.563Z,10.90
2023-10-22T19:22:30.347Z,10.90
2023-10-22T19:24:03.572Z,10.80
2023-10-22T19:25:36.520Z,10.80
2023-10-22T19:27:11.045Z,10.80
2023-10-22T19:28:44.325Z,10.90
2023-10-22T19:30:16.928Z,10.90
2023-10-22T19:31:50.148Z,10.80
2023-10-22T19:33:22.618Z,10.90
2023-10-22T19:34:55.988Z,10.80
2023-10-22T19:36:28.239Z,10.80
2023-10-22T19:38:01.449Z,10.80
2023-10-22T19:39:33.953Z,10.80
2023-10-22T19:41:07.150Z,10.80
2023-10-22T19:42:40.739Z,10.80
2023-10-22T19:44:13.910Z,10.80
2023-10-22T19:45:49.815Z,10.80
2023-10-22T19:47:23.197Z,10.80
2023-10-22T19:49:10.835Z,10.80
2023-10-22T19:50:44.471Z,10.70
2023-10-22T19:52:29.668Z,10.80
2023-10-22T19:54:07.669Z,10.80
2023-10-22T19:55:41.406Z,10.80
2023-10-22T19:57:14.784Z,10.80
2023-10-22T19:58:49.094Z,10.80
2023-10-22T20:00:23.017Z,10.70
2023-10-22T20:02:10.365Z,10.70
2023-10-22T20:03:49.652Z,10.70
2023-10-22T20:05:22.123Z,10.70
2023-10-22T20:06:55.567Z,10.70
2023-10-22T20:08:28.139Z,10.70
2023-10-22T20:10:01.371Z,10.70
2023-10-22T20:11:33.961Z,10.70
2023-10-22T20:13:07.368Z,10.70
2023-10-22T20:14:41.259Z,10.70